sensor_id;sensor_type;location;lat;lon;timestamp;temperature;humidity
6740;DHT22;3407;49.882;10.920;2023-05-24T00:04:08;11.90;62.60
6740;DHT22;3407;49.882;10.920;2023-05-24T00:09:05;11.90;99.90
6740;DHT22;3407;49.882;10.920;2023-05-24T00:14:00;11.90;99.90
6740;DHT22;3407;49.882;10.920;2023-05-24T00:18:56;12.00;99.90
6740;DHT22;3407;49.882;10.920;2023-05-24T00:23:53;12.10;1.00
6740;DHT22;3407;49.882;10.920;2023-05-24T00:28:48;12.10;37.90
6740;DHT22;3407;49.882;10.920;2023-05-24T00:33:44;12.10;2.70
6740;DHT22;3407;49.882;10.920;2023-05-24T00:38:40;12.00;13.90
6740;DHT22;3407;49.882;10.920;2023-05-24T00:43:35;11.80;99.90
6740;DHT22;3407;49.882;10.920;2023-05-24T00:48:31;11.80;99.90
6740;DHT22;3407;49.882;10.920;2023-05-24T00:53:27;11.80;99.90
6740;DHT22;3407;49.882;10.920;2023-05-24T00:58:22;11.90;99.90
6740;DHT22;3407;49.882;10.920;2023-05-24T01:03:21;11.90;99.90
6740;DHT22;3407;49.882;10.920;2023-05-24T01:18:56;11.80;99.90
6740;DHT22;3407;49.882;10.920;2023-05-24T01:28:50;11.70;1.00
6740;DHT22;3407;49.882;10.920;2023-05-24T01:33:46;11.70;99.90
6740;DHT22;3407;49.882;10.920;2023-05-24T01:38:42;11.60;1.00
6740;DHT22;3407;49.882;10.920;2023-05-24T01:43:40;11.70;1.00
6740;DHT22;3407;49.882;10.920;2023-05-24T01:49:05;11.70;1.00
6740;DHT22;3407;49.882;10.920;2023-05-24T01:54:04;11.50;1.00
6740;DHT22;3407;49.882;10.920;2023-05-24T01:59:01;11.60;1.00
6740;DHT22;3407;49.882;10.920;2023-05-24T02:03:58;11.50;1.00
6740;DHT22;3407;49.882;10.920;2023-05-24T02:08:54;11.40;1.00
6740;DHT22;3407;49.882;10.920;2023-05-24T02:13:49;11.40;1.00
6740;DHT22;3407;49.882;10.920;2023-05-24T02:18:45;11.40;99.90
6740;DHT22;3407;49.882;10.920;2023-05-24T02:23:41;11.50;99.90
6740;DHT22;3407;49.882;10.920;2023-05-24T02:28:36;11.50;99.90
6740;DHT22;3407;49.882;10.920;2023-05-24T02:33:32;11.50;99.90
6740;DHT22;3407;49.882;10.920;2023-05-24T02:38:28;11.30;99.90
6740;DHT22;3407;49.882;10.920;2023-05-24T02:43:23;11.40;99.90
6740;DHT22;3407;49.882;10.920;2023-05-24T02:48:19;11.40;99.90
6740;DHT22;3407;49.882;10.920;2023-05-24T02:53:14;11.40;78.30
6740;DHT22;3407;49.882;10.920;2023-05-24T02:58:10;11.50;89.40
6740;DHT22;3407;49.882;10.920;2023-05-24T03:03:06;11.40;81.00
6740;DHT22;3407;49.882;10.920;2023-05-24T03:08:01;11.50;99.90
6740;DHT22;3407;49.882;10.920;2023-05-24T03:12:57;11.50;27.40
6740;DHT22;3407;49.882;10.920;2023-05-24T03:17:52;11.50;1.00
6740;DHT22;3407;49.882;10.920;2023-05-24T03:22:48;11.40;1.00
6740;DHT22;3407;49.882;10.920;2023-05-24T03:27:43;11.30;41.60
6740;DHT22;3407;49.882;10.920;2023-05-24T03:32:39;11.30;34.10
6740;DHT22;3407;49.882;10.920;2023-05-24T03:37:34;11.40;17.80
6740;DHT22;3407;49.882;10.920;2023-05-24T03:42:30;11.40;39.20
6740;DHT22;3407;49.882;10.920;2023-05-24T03:47:25;11.50;15.60
6740;DHT22;3407;49.882;10.920;2023-05-24T03:52:21;11.50;1.00
6740;DHT22;3407;49.882;10.920;2023-05-24T03:57:17;11.30;1.00
6740;DHT22;3407;49.882;10.920;2023-05-24T04:02:12;11.30;1.20
6740;DHT22;3407;49.882;10.920;2023-05-24T04:07:08;11.40;1.00
6740;DHT22;3407;49.882;10.920;2023-05-24T04:12:06;11.40;1.00
6740;DHT22;3407;49.882;10.920;2023-05-24T04:17:02;11.50;1.00
6740;DHT22;3407;49.882;10.920;2023-05-24T04:21:59;11.30;1.00
6740;DHT22;3407;49.882;10.920;2023-05-24T04:26:55;11.40;1.00
6740;DHT22;3407;49.882;10.920;2023-05-24T04:31:52;11.40;1.00
6740;DHT22;3407;49.882;10.920;2023-05-24T04:36:47;11.40;1.00
6740;DHT22;3407;49.882;10.920;2023-05-24T04:41:44;11.40;1.00
6740;DHT22;3407;49.882;10.920;2023-05-24T04:46:40;11.30;1.00
6740;DHT22;3407;49.882;10.920;2023-05-24T04:51:35;11.40;1.00
6740;DHT22;3407;49.882;10.920;2023-05-24T04:56:36;11.40;1.00
6740;DHT22;3407;49.882;10.920;2023-05-24T05:01:33;11.30;1.00
6740;DHT22;3407;49.882;10.920;2023-05-24T05:06:29;11.20;1.00
6740;DHT22;3407;49.882;10.920;2023-05-24T05:11:24;11.20;1.00
6740;DHT22;3407;49.882;10.920;2023-05-24T05:16:20;11.40;1.00
6740;DHT22;3407;49.882;10.920;2023-05-24T05:21:16;11.30;1.00
6740;DHT22;3407;49.882;10.920;2023-05-24T05:26:11;11.40;1.00
6740;DHT22;3407;49.882;10.920;2023-05-24T05:31:07;11.50;99.90
6740;DHT22;3407;49.882;10.920;2023-05-24T05:36:02;11.60;99.90
6740;DHT22;3407;49.882;10.920;2023-05-24T05:40:58;11.60;99.90
6740;DHT22;3407;49.882;10.920;2023-05-24T05:45:54;11.40;99.90
6740;DHT22;3407;49.882;10.920;2023-05-24T05:50:50;11.50;99.90
6740;DHT22;3407;49.882;10.920;2023-05-24T05:55:46;11.40;99.90
6740;DHT22;3407;49.882;10.920;2023-05-24T06:00:41;11.50;99.90
6740;DHT22;3407;49.882;10.920;2023-05-24T06:05:37;11.80;99.90
6740;DHT22;3407;49.882;10.920;2023-05-24T06:10:32;12.10;99.90
6740;DHT22;3407;49.882;10.920;2023-05-24T06:15:28;12.30;99.90
6740;DHT22;3407;49.882;10.920;2023-05-24T06:20:23;12.50;99.90
6740;DHT22;3407;49.882;10.920;2023-05-24T06:25:19;12.80;99.90
6740;DHT22;3407;49.882;10.920;2023-05-24T06:30:17;13.50;99.90
6740;DHT22;3407;49.882;10.920;2023-05-24T06:35:12;13.90;99.90
6740;DHT22;3407;49.882;10.920;2023-05-24T06:40:08;13.80;99.90
6740;DHT22;3407;49.882;10.920;2023-05-24T06:45:04;13.40;99.90
6740;DHT22;3407;49.882;10.920;2023-05-24T06:50:01;13.30;99.90
6740;DHT22;3407;49.882;10.920;2023-05-24T06:54:58;13.30;99.90
6740;DHT22;3407;49.882;10.920;2023-05-24T06:59:53;13.60;99.90
6740;DHT22;3407;49.882;10.920;2023-05-24T07:04:49;14.00;99.90
6740;DHT22;3407;49.882;10.920;2023-05-24T07:09:45;14.40;99.90
6740;DHT22;3407;49.882;10.920;2023-05-24T07:14:41;14.30;99.90
6740;DHT22;3407;49.882;10.920;2023-05-24T07:19:37;14.20;99.90
6740;DHT22;3407;49.882;10.920;2023-05-24T07:24:32;14.40;99.90
6740;DHT22;3407;49.882;10.920;2023-05-24T07:29:28;14.40;99.90
6740;DHT22;3407;49.882;10.920;2023-05-24T07:34:23;14.40;99.90
6740;DHT22;3407;49.882;10.920;2023-05-24T07:39:21;14.30;99.90
6740;DHT22;3407;49.882;10.920;2023-05-24T07:44:18;14.00;99.90
6740;DHT22;3407;49.882;10.920;2023-05-24T07:49:14;13.50;99.90
6740;DHT22;3407;49.882;10.920;2023-05-24T07:54:09;13.20;99.90
6740;DHT22;3407;49.882;10.920;2023-05-24T07:59:05;13.00;99.90
6740;DHT22;3407;49.882;10.920;2023-05-24T08:04:01;12.80;99.90
6740;DHT22;3407;49.882;10.920;2023-05-24T08:09:03;13.30;99.90
6740;DHT22;3407;49.882;10.920;2023-05-24T08:13:59;13.60;99.90
6740;DHT22;3407;49.882;10.920;2023-05-24T08:18:54;13.20;99.90
6740;DHT22;3407;49.882;10.920;2023-05-24T08:23:50;13.10;99.90
6740;DHT22;3407;49.882;10.920;2023-05-24T08:28:45;13.20;99.90
6740;DHT22;3407;49.882;10.920;2023-05-24T08:33:41;13.60;99.90
6740;DHT22;3407;49.882;10.920;2023-05-24T08:38:37;13.20;99.90
6740;DHT22;3407;49.882;10.920;2023-05-24T08:43:33;13.30;99.90
6740;DHT22;3407;49.882;10.920;2023-05-24T08:48:29;13.30;99.90
6740;DHT22;3407;49.882;10.920;2023-05-24T08:53:25;13.90;99.90
6740;DHT22;3407;49.882;10.920;2023-05-24T08:58:21;14.90;99.90
6740;DHT22;3407;49.882;10.920;2023-05-24T09:03:17;15.50;99.90
6740;DHT22;3407;49.882;10.920;2023-05-24T09:08:13;16.10;99.90
6740;DHT22;3407;49.882;10.920;2023-05-24T09:13:14;16.10;99.90
6740;DHT22;3407;49.882;10.920;2023-05-24T09:18:10;17.20;99.90
6740;DHT22;3407;49.882;10.920;2023-05-24T09:23:06;18.10;99.90
6740;DHT22;3407;49.882;10.920;2023-05-24T09:28:06;19.50;99.90
6740;DHT22;3407;49.882;10.920;2023-05-24T09:33:02;20.20;99.90
6740;DHT22;3407;49.882;10.920;2023-05-24T09:37:59;19.10;99.90
6740;DHT22;3407;49.882;10.920;2023-05-24T09:43:05;18.60;99.90
6740;DHT22;3407;49.882;10.920;2023-05-24T09:48:09;18.80;99.90
6740;DHT22;3407;49.882;10.920;2023-05-24T09:53:06;19.40;99.90
6740;DHT22;3407;49.882;10.920;2023-05-24T09:58:04;19.40;99.90
6740;DHT22;3407;49.882;10.920;2023-05-24T10:08:02;19.60;99.90
6740;DHT22;3407;49.882;10.920;2023-05-24T10:13:00;18.70;99.90
6740;DHT22;3407;49.882;10.920;2023-05-24T10:17:56;19.20;99.90
6740;DHT22;3407;49.882;10.920;2023-05-24T10:22:58;19.10;99.90
6740;DHT22;3407;49.882;10.920;2023-05-24T10:28:06;18.80;99.90
6740;DHT22;3407;49.882;10.920;2023-05-24T10:33:05;18.80;99.90
6740;DHT22;3407;49.882;10.920;2023-05-24T10:38:05;18.80;99.90
6740;DHT22;3407;49.882;10.920;2023-05-24T10:43:04;18.40;99.90
6740;DHT22;3407;49.882;10.920;2023-05-24T10:48:07;19.60;99.90
6740;DHT22;3407;49.882;10.920;2023-05-24T10:53:13;22.20;99.90
6740;DHT22;3407;49.882;10.920;2023-05-24T10:58:10;24.90;99.90
6740;DHT22;3407;49.882;10.920;2023-05-24T11:03:08;22.60;92.50
6740;DHT22;3407;49.882;10.920;2023-05-24T11:08:05;20.50;92.20
6740;DHT22;3407;49.882;10.920;2023-05-24T11:13:01;20.90;96.00
6740;DHT22;3407;49.882;10.920;2023-05-24T11:23:09;22.00;92.50
6740;DHT22;3407;49.882;10.920;2023-05-24T11:28:08;22.10;92.00
6740;DHT22;3407;49.882;10.920;2023-05-24T11:33:15;21.00;90.70
6740;DHT22;3407;49.882;10.920;2023-05-24T11:38:16;19.30;91.90
6740;DHT22;3407;49.882;10.920;2023-05-24T11:43:15;19.10;94.30
6740;DHT22;3407;49.882;10.920;2023-05-24T11:48:11;19.90;95.40
6740;DHT22;3407;49.882;10.920;2023-05-24T11:53:14;20.60;94.90
6740;DHT22;3407;49.882;10.920;2023-05-24T11:58:23;21.60;94.20
6740;DHT22;3407;49.882;10.920;2023-05-24T12:03:19;23.00;92.70
6740;DHT22;3407;49.882;10.920;2023-05-24T12:08:14;21.60;88.60
6740;DHT22;3407;49.882;10.920;2023-05-24T12:13:21;21.80;91.40
6740;DHT22;3407;49.882;10.920;2023-05-24T12:18:21;22.90;85.50
6740;DHT22;3407;49.882;10.920;2023-05-24T12:23:23;22.90;87.00
6740;DHT22;3407;49.882;10.920;2023-05-24T12:28:19;23.80;80.70
6740;DHT22;3407;49.882;10.920;2023-05-24T12:33:19;25.50;84.20
6740;DHT22;3407;49.882;10.920;2023-05-24T12:38:18;26.80;76.00
6740;DHT22;3407;49.882;10.920;2023-05-24T12:43:20;25.20;67.60
6740;DHT22;3407;49.882;10.920;2023-05-24T12:48:15;23.30;71.10
6740;DHT22;3407;49.882;10.920;2023-05-24T12:53:11;24.20;78.70
6740;DHT22;3407;49.882;10.920;2023-05-24T12:58:06;25.50;73.20
6740;DHT22;3407;49.882;10.920;2023-05-24T13:03:03;26.50;68.80
6740;DHT22;3407;49.882;10.920;2023-05-24T13:07:59;26.60;65.40
6740;DHT22;3407;49.882;10.920;2023-05-24T13:12:55;26.70;64.70
6740;DHT22;3407;49.882;10.920;2023-05-24T13:17:51;26.60;67.40
6740;DHT22;3407;49.882;10.920;2023-05-24T13:22:49;24.70;65.00
6740;DHT22;3407;49.882;10.920;2023-05-24T13:27:45;22.20;60.30
6740;DHT22;3407;49.882;10.920;2023-05-24T13:32:41;20.50;64.80
6740;DHT22;3407;49.882;10.920;2023-05-24T13:37:36;19.80;67.20
6740;DHT22;3407;49.882;10.920;2023-05-24T13:42:32;19.20;67.20
6740;DHT22;3407;49.882;10.920;2023-05-24T13:47:28;19.10;70.00
6740;DHT22;3407;49.882;10.920;2023-05-24T13:52:23;18.90;77.70
6740;DHT22;3407;49.882;10.920;2023-05-24T13:57:20;19.20;77.50
6740;DHT22;3407;49.882;10.920;2023-05-24T14:02:15;19.40;78.50
6740;DHT22;3407;49.882;10.920;2023-05-24T14:07:11;19.00;73.60
6740;DHT22;3407;49.882;10.920;2023-05-24T14:12:09;18.90;79.40
6740;DHT22;3407;49.882;10.920;2023-05-24T14:17:05;19.10;76.90
6740;DHT22;3407;49.882;10.920;2023-05-24T14:22:00;18.90;76.30
6740;DHT22;3407;49.882;10.920;2023-05-24T14:26:56;18.60;80.60
6740;DHT22;3407;49.882;10.920;2023-05-24T14:31:51;18.80;81.10
6740;DHT22;3407;49.882;10.920;2023-05-24T14:36:47;18.80;78.50
6740;DHT22;3407;49.882;10.920;2023-05-24T14:41:43;18.70;96.80
6740;DHT22;3407;49.882;10.920;2023-05-24T14:46:39;18.60;80.10
6740;DHT22;3407;49.882;10.920;2023-05-24T14:51:34;18.50;81.40
6740;DHT22;3407;49.882;10.920;2023-05-24T14:56:31;18.60;80.60
6740;DHT22;3407;49.882;10.920;2023-05-24T15:01:27;18.30;79.80
6740;DHT22;3407;49.882;10.920;2023-05-24T15:06:22;18.50;84.20
6740;DHT22;3407;49.882;10.920;2023-05-24T15:11:18;19.00;84.90
6740;DHT22;3407;49.882;10.920;2023-05-24T15:16:13;19.40;82.50
6740;DHT22;3407;49.882;10.920;2023-05-24T15:21:09;19.40;78.70
6740;DHT22;3407;49.882;10.920;2023-05-24T15:26:05;19.00;76.90
6740;DHT22;3407;49.882;10.920;2023-05-24T15:31:00;18.90;80.50
6740;DHT22;3407;49.882;10.920;2023-05-24T15:35:58;19.40;82.20
6740;DHT22;3407;49.882;10.920;2023-05-24T15:40:53;19.40;76.70
6740;DHT22;3407;49.882;10.920;2023-05-24T15:45:49;19.30;76.40
6740;DHT22;3407;49.882;10.920;2023-05-24T15:50:45;19.40;75.40
6740;DHT22;3407;49.882;10.920;2023-05-24T15:55:40;19.10;75.10
6740;DHT22;3407;49.882;10.920;2023-05-24T16:00:36;18.80;77.20
6740;DHT22;3407;49.882;10.920;2023-05-24T16:05:31;18.60;77.20
6740;DHT22;3407;49.882;10.920;2023-05-24T16:10:27;18.40;77.80
6740;DHT22;3407;49.882;10.920;2023-05-24T16:15:23;18.20;78.40
6740;DHT22;3407;49.882;10.920;2023-05-24T16:20:20;18.10;76.80
6740;DHT22;3407;49.882;10.920;2023-05-24T16:25:16;18.10;78.80
6740;DHT22;3407;49.882;10.920;2023-05-24T16:30:12;17.90;77.80
6740;DHT22;3407;49.882;10.920;2023-05-24T16:35:08;17.80;77.60
6740;DHT22;3407;49.882;10.920;2023-05-24T16:40:04;17.50;78.50
6740;DHT22;3407;49.882;10.920;2023-05-24T16:44:59;17.10;77.10
6740;DHT22;3407;49.882;10.920;2023-05-24T16:49:55;16.70;80.80
6740;DHT22;3407;49.882;10.920;2023-05-24T16:54:51;16.70;80.30
6740;DHT22;3407;49.882;10.920;2023-05-24T16:59:46;16.60;80.00
6740;DHT22;3407;49.882;10.920;2023-05-24T17:04:42;16.40;81.10
6740;DHT22;3407;49.882;10.920;2023-05-24T17:09:38;16.30;82.40
6740;DHT22;3407;49.882;10.920;2023-05-24T17:14:33;16.30;83.30
6740;DHT22;3407;49.882;10.920;2023-05-24T17:19:29;16.20;82.60
6740;DHT22;3407;49.882;10.920;2023-05-24T17:24:25;16.10;82.50
6740;DHT22;3407;49.882;10.920;2023-05-24T17:29:22;15.90;83.50
6740;DHT22;3407;49.882;10.920;2023-05-24T17:34:17;15.80;85.70
6740;DHT22;3407;49.882;10.920;2023-05-24T17:39:13;15.70;99.90
6740;DHT22;3407;49.882;10.920;2023-05-24T17:44:11;15.60;90.20
6740;DHT22;3407;49.882;10.920;2023-05-24T17:49:07;15.50;90.40
6740;DHT22;3407;49.882;10.920;2023-05-24T17:54:02;15.30;90.10
6740;DHT22;3407;49.882;10.920;2023-05-24T17:58:58;15.20;91.00
6740;DHT22;3407;49.882;10.920;2023-05-24T18:03:53;15.10;92.20
6740;DHT22;3407;49.882;10.920;2023-05-24T18:08:49;14.80;92.00
6740;DHT22;3407;49.882;10.920;2023-05-24T18:13:44;14.80;93.40
6740;DHT22;3407;49.882;10.920;2023-05-24T18:18:40;14.70;93.50
6740;DHT22;3407;49.882;10.920;2023-05-24T18:23:38;14.60;94.50
6740;DHT22;3407;49.882;10.920;2023-05-24T18:28:34;14.40;94.40
6740;DHT22;3407;49.882;10.920;2023-05-24T18:33:33;14.30;95.10
6740;DHT22;3407;49.882;10.920;2023-05-24T18:38:30;14.30;95.30
6740;DHT22;3407;49.882;10.920;2023-05-24T18:43:26;14.20;96.60
6740;DHT22;3407;49.882;10.920;2023-05-24T18:48:21;14.20;96.90
6740;DHT22;3407;49.882;10.920;2023-05-24T18:53:17;14.10;97.50
6740;DHT22;3407;49.882;10.920;2023-05-24T18:58:12;14.10;97.70
6740;DHT22;3407;49.882;10.920;2023-05-24T19:03:08;14.00;98.30
6740;DHT22;3407;49.882;10.920;2023-05-24T19:08:06;13.90;98.70
6740;DHT22;3407;49.882;10.920;2023-05-24T19:13:01;13.80;99.10
6740;DHT22;3407;49.882;10.920;2023-05-24T19:17:57;13.60;99.90
6740;DHT22;3407;49.882;10.920;2023-05-24T19:22:53;13.50;99.90
6740;DHT22;3407;49.882;10.920;2023-05-24T19:27:49;13.40;99.90
6740;DHT22;3407;49.882;10.920;2023-05-24T19:32:44;13.30;99.90
6740;DHT22;3407;49.882;10.920;2023-05-24T19:37:40;13.20;99.90
6740;DHT22;3407;49.882;10.920;2023-05-24T19:42:35;13.10;99.90
6740;DHT22;3407;49.882;10.920;2023-05-24T19:47:31;13.00;99.90
6740;DHT22;3407;49.882;10.920;2023-05-24T19:52:26;12.90;99.90
6740;DHT22;3407;49.882;10.920;2023-05-24T19:57:22;12.80;99.90
6740;DHT22;3407;49.882;10.920;2023-05-24T20:02:18;12.80;99.90
6740;DHT22;3407;49.882;10.920;2023-05-24T20:07:13;12.70;99.90
6740;DHT22;3407;49.882;10.920;2023-05-24T20:12:09;12.60;99.90
6740;DHT22;3407;49.882;10.920;2023-05-24T20:17:05;12.50;99.90
6740;DHT22;3407;49.882;10.920;2023-05-24T20:22:01;12.40;99.90
6740;DHT22;3407;49.882;10.920;2023-05-24T20:26:56;12.20;99.90
6740;DHT22;3407;49.882;10.920;2023-05-24T20:31:52;12.10;99.90
6740;DHT22;3407;49.882;10.920;2023-05-24T20:36:47;12.10;99.90
6740;DHT22;3407;49.882;10.920;2023-05-24T20:41:43;12.00;99.90
6740;DHT22;3407;49.882;10.920;2023-05-24T20:46:38;12.00;99.90
6740;DHT22;3407;49.882;10.920;2023-05-24T20:51:34;12.00;99.90
6740;DHT22;3407;49.882;10.920;2023-05-24T20:56:30;12.00;99.90
6740;DHT22;3407;49.882;10.920;2023-05-24T21:01:26;12.00;99.90
6740;DHT22;3407;49.882;10.920;2023-05-24T21:06:22;11.90;99.90
6740;DHT22;3407;49.882;10.920;2023-05-24T21:11:17;11.90;99.90
6740;DHT22;3407;49.882;10.920;2023-05-24T21:16:13;11.90;99.90
6740;DHT22;3407;49.882;10.920;2023-05-24T21:21:08;11.80;99.90
6740;DHT22;3407;49.882;10.920;2023-05-24T21:26:05;11.80;99.90
6740;DHT22;3407;49.882;10.920;2023-05-24T21:31:00;11.80;99.90
6740;DHT22;3407;49.882;10.920;2023-05-24T21:35:56;11.80;99.90
6740;DHT22;3407;49.882;10.920;2023-05-24T21:40:52;11.70;99.90
6740;DHT22;3407;49.882;10.920;2023-05-24T21:45:48;11.60;99.90
6740;DHT22;3407;49.882;10.920;2023-05-24T21:50:43;11.50;99.90
6740;DHT22;3407;49.882;10.920;2023-05-24T21:55:39;11.50;99.90
6740;DHT22;3407;49.882;10.920;2023-05-24T22:00:34;11.50;99.90
6740;DHT22;3407;49.882;10.920;2023-05-24T22:05:31;11.50;99.90
6740;DHT22;3407;49.882;10.920;2023-05-24T22:10:26;11.50;99.90
6740;DHT22;3407;49.882;10.920;2023-05-24T22:15:22;11.50;99.90
6740;DHT22;3407;49.882;10.920;2023-05-24T22:20:17;11.50;99.90
6740;DHT22;3407;49.882;10.920;2023-05-24T22:25:14;11.50;99.90
6740;DHT22;3407;49.882;10.920;2023-05-24T22:30:13;11.40;99.90
6740;DHT22;3407;49.882;10.920;2023-05-24T22:35:09;11.40;99.90
6740;DHT22;3407;49.882;10.920;2023-05-24T22:40:05;11.30;99.90
6740;DHT22;3407;49.882;10.920;2023-05-24T22:45:02;11.40;99.90
6740;DHT22;3407;49.882;10.920;2023-05-24T22:49:58;11.30;99.90
6740;DHT22;3407;49.882;10.920;2023-05-24T22:54:53;11.20;99.90
6740;DHT22;3407;49.882;10.920;2023-05-24T22:59:49;11.10;99.90
6740;DHT22;3407;49.882;10.920;2023-05-24T23:04:45;10.90;99.90
6740;DHT22;3407;49.882;10.920;2023-05-24T23:09:42;10.70;99.90
6740;DHT22;3407;49.882;10.920;2023-05-24T23:14:38;10.60;99.90
6740;DHT22;3407;49.882;10.920;2023-05-24T23:19:35;10.60;99.90
6740;DHT22;3407;49.882;10.920;2023-05-24T23:24:41;10.60;99.90
6740;DHT22;3407;49.882;10.920;2023-05-24T23:29:36;10.60;99.90
6740;DHT22;3407;49.882;10.920;2023-05-24T23:34:35;10.50;99.90
6740;DHT22;3407;49.882;10.920;2023-05-24T23:39:31;10.40;99.90
6740;DHT22;3407;49.882;10.920;2023-05-24T23:44:27;10.40;99.90
6740;DHT22;3407;49.882;10.920;2023-05-24T23:49:23;10.40;99.90
6740;DHT22;3407;49.882;10.920;2023-05-24T23:54:18;10.30;99.90
6740;DHT22;3407;49.882;10.920;2023-05-24T23:59:15;10.20;99.90
